createdAt,value
2019-03-19T00:00:21.832Z,93.60
2019-03-19T00:02:50.596Z,93.20
2019-03-19T00:05:19.356Z,93.20
2019-03-19T00:07:48.027Z,93.40
2019-03-19T00:10:16.800Z,93.60
2019-03-19T00:12:45.562Z,93.60
2019-03-19T00:15:14.364Z,93.50
2019-03-19T00:17:42.970Z,93.60
2019-03-19T00:20:16.489Z,93.60
2019-03-19T00:22:45.232Z,93.70
2019-03-19T00:25:15.558Z,93.70
2019-03-19T00:27:44.425Z,93.90
2019-03-19T00:30:17.600Z,94.00
2019-03-19T00:32:46.366Z,94.00
2019-03-19T00:35:15.338Z,93.90
2019-03-19T00:37:43.998Z,94.00
2019-03-19T00:40:16.348Z,94.00
2019-03-19T00:42:45.128Z,94.00
2019-03-19T00:45:14.509Z,94.00
2019-03-19T00:47:43.269Z,94.00
2019-03-19T00:50:14.476Z,94.10
2019-03-19T00:52:43.373Z,94.20
2019-03-19T00:55:13.007Z,94.10
2019-03-19T00:57:41.692Z,94.30
2019-03-19T01:00:13.541Z,94.40
2019-03-19T01:02:42.396Z,94.40
2019-03-19T01:05:11.372Z,94.50
2019-03-19T01:07:40.161Z,94.60
2019-03-19T01:10:11.495Z,94.80
2019-03-19T01:12:40.196Z,94.70
2019-03-19T01:15:11.850Z,94.60
2019-03-19T01:17:40.610Z,94.40
2019-03-19T01:20:12.304Z,94.50
2019-03-19T01:22:40.938Z,94.60
2019-03-19T01:25:10.843Z,94.50
2019-03-19T01:27:39.474Z,94.50
2019-03-19T01:30:13.294Z,94.50
2019-03-19T01:32:41.871Z,94.50
2019-03-19T01:35:10.704Z,94.40
2019-03-19T01:37:39.448Z,94.60
2019-03-19T01:40:13.665Z,94.90
2019-03-19T01:42:44.006Z,95.00
2019-03-19T01:45:14.762Z,94.90
2019-03-19T01:47:43.436Z,94.80
2019-03-19T01:50:16.100Z,94.90
2019-03-19T01:52:44.933Z,94.80
2019-03-19T01:55:15.539Z,94.80
2019-03-19T01:57:46.443Z,94.90
2019-03-19T02:00:16.522Z,95.00
2019-03-19T02:02:45.188Z,95.20
2019-03-19T02:05:14.371Z,95.20
2019-03-19T02:07:43.144Z,95.30
2019-03-19T02:10:13.489Z,95.30
2019-03-19T02:12:42.175Z,95.40
2019-03-19T02:15:21.569Z,95.70
2019-03-19T02:17:49.819Z,95.70
2019-03-19T02:20:18.762Z,95.90
2019-03-19T02:22:47.523Z,95.90
2019-03-19T02:25:17.657Z,96.00
2019-03-19T02:27:46.377Z,96.10
2019-03-19T02:30:17.022Z,95.90
2019-03-19T02:32:45.617Z,95.90
2019-03-19T02:35:15.760Z,95.90
2019-03-19T02:37:44.304Z,96.00
2019-03-19T02:40:14.425Z,96.10
2019-03-19T02:42:43.115Z,96.20
2019-03-19T02:45:12.943Z,96.20
2019-03-19T02:47:41.601Z,96.10
2019-03-19T02:50:12.804Z,96.20
2019-03-19T02:52:41.417Z,96.30
2019-03-19T02:55:10.875Z,96.30
2019-03-19T02:57:39.529Z,96.10
2019-03-19T03:00:13.781Z,95.90
2019-03-19T03:02:42.522Z,95.90
2019-03-19T03:05:19.137Z,95.90
2019-03-19T03:07:47.823Z,95.80
2019-03-19T03:10:16.568Z,96.00
2019-03-19T03:12:45.331Z,96.20
2019-03-19T03:15:15.762Z,96.60
2019-03-19T03:17:44.463Z,96.60
2019-03-19T03:20:14.615Z,96.70
2019-03-19T03:22:43.367Z,96.80
2019-03-19T03:25:13.591Z,96.90
2019-03-19T03:27:42.537Z,97.10
2019-03-19T03:30:16.656Z,97.10
2019-03-19T03:32:45.500Z,97.00
2019-03-19T03:35:14.512Z,97.10
2019-03-19T03:37:43.165Z,96.80
2019-03-19T03:40:19.101Z,96.90
2019-03-19T03:42:47.743Z,97.00
2019-03-19T03:45:18.684Z,97.40
2019-03-19T03:47:47.398Z,97.20
2019-03-19T03:50:17.121Z,97.40
2019-03-19T03:52:45.792Z,97.30
2019-03-19T03:55:15.929Z,97.10
2019-03-19T03:57:44.492Z,97.20
2019-03-19T04:00:18.535Z,97.30
2019-03-19T04:02:47.191Z,97.30
2019-03-19T04:05:16.256Z,97.50
2019-03-19T04:07:44.976Z,97.90
2019-03-19T04:10:17.866Z,98.10
2019-03-19T04:12:46.687Z,98.20
2019-03-19T04:15:16.482Z,98.30
2019-03-19T04:17:45.152Z,98.30
2019-03-19T04:20:15.887Z,98.30
2019-03-19T04:22:44.645Z,97.90
2019-03-19T04:25:13.360Z,97.90
2019-03-19T04:27:42.310Z,98.10
2019-03-19T04:30:18.836Z,98.10
2019-03-19T04:32:47.494Z,98.20
2019-03-19T04:35:16.541Z,98.20
2019-03-19T04:37:45.203Z,98.30
2019-03-19T04:40:15.099Z,98.40
2019-03-19T04:42:44.475Z,98.40
2019-03-19T04:45:17.168Z,98.10
2019-03-19T04:47:46.034Z,98.00
2019-03-19T04:50:15.457Z,98.00
2019-03-19T04:52:44.213Z,98.10
2019-03-19T04:55:20.030Z,98.10
2019-03-19T04:57:51.571Z,98.00
2019-03-19T05:00:20.860Z,97.90
2019-03-19T05:02:49.594Z,98.00
2019-03-19T05:05:18.406Z,98.10
2019-03-19T05:07:46.944Z,98.20
2019-03-19T05:10:19.184Z,98.00
2019-03-19T05:12:47.781Z,98.00
2019-03-19T05:15:16.867Z,97.90
2019-03-19T05:17:45.578Z,97.80
2019-03-19T05:20:15.622Z,97.90
2019-03-19T05:22:44.408Z,97.80
2019-03-19T05:25:13.110Z,97.70
2019-03-19T05:27:41.686Z,97.40
2019-03-19T05:30:12.618Z,96.80
2019-03-19T05:32:41.268Z,96.80
2019-03-19T05:35:10.316Z,96.20
2019-03-19T05:37:39.012Z,96.40
2019-03-19T05:40:12.717Z,96.10
2019-03-19T05:42:41.473Z,95.80
2019-03-19T05:45:15.102Z,95.60
2019-03-19T05:47:43.911Z,95.60
2019-03-19T05:50:14.152Z,95.50
2019-03-19T05:53:00.165Z,94.90
2019-03-19T05:55:28.871Z,94.90
2019-03-19T05:57:57.507Z,94.70
2019-03-19T06:00:31.026Z,94.70
2019-03-19T06:02:59.780Z,94.60
2019-03-19T06:05:28.383Z,94.60
2019-03-19T06:07:57.081Z,94.20
2019-03-19T06:10:26.185Z,93.10
2019-03-19T06:12:54.909Z,91.00
2019-03-19T06:15:23.668Z,85.90
2019-03-19T06:17:52.366Z,79.20
2019-03-19T06:20:21.541Z,74.00
2019-03-19T06:22:50.158Z,68.20
2019-03-19T06:25:18.867Z,63.40
2019-03-19T06:27:47.483Z,59.40
2019-03-19T06:30:23.388Z,56.50
2019-03-19T06:32:52.320Z,54.90
2019-03-19T06:35:20.947Z,54.00
2019-03-19T06:37:49.594Z,51.80
2019-03-19T06:40:20.260Z,50.50
2019-03-19T06:42:49.134Z,48.90
2019-03-19T06:45:18.642Z,49.50
2019-03-19T06:47:47.402Z,53.20
2019-03-19T06:50:20.218Z,59.40
2019-03-19T06:52:48.828Z,67.50
2019-03-19T06:55:19.558Z,73.60
2019-03-19T06:57:48.334Z,72.70
2019-03-19T07:00:19.137Z,73.10
2019-03-19T07:02:48.047Z,74.50
2019-03-19T07:05:20.455Z,74.80
2019-03-19T07:07:49.146Z,75.10
2019-03-19T07:10:21.801Z,78.00
2019-03-19T07:12:50.629Z,80.50
2019-03-19T07:15:23.438Z,83.60
2019-03-19T07:17:52.315Z,85.90
2019-03-19T07:20:22.215Z,87.80
2019-03-19T07:22:50.846Z,89.60
2019-03-19T07:25:19.637Z,90.20
2019-03-19T07:27:48.340Z,90.20
2019-03-19T07:30:19.195Z,90.30
2019-03-19T07:32:49.403Z,90.50
2019-03-19T07:35:18.332Z,90.60
2019-03-19T07:37:47.162Z,90.50
2019-03-19T07:40:16.571Z,90.80
2019-03-19T07:42:45.236Z,90.70
2019-03-19T07:45:21.632Z,90.80
2019-03-19T07:47:50.212Z,91.00
2019-03-19T07:50:22.984Z,91.00
2019-03-19T07:52:51.697Z,91.20
2019-03-19T07:55:21.308Z,91.40
2019-03-19T07:57:49.990Z,91.50
2019-03-19T08:00:20.790Z,91.80
2019-03-19T08:02:49.471Z,91.80
2019-03-19T08:05:18.204Z,91.40
2019-03-19T08:07:46.828Z,91.20
2019-03-19T08:10:17.786Z,90.90
2019-03-19T08:12:46.524Z,90.90
2019-03-19T08:15:16.475Z,90.70
2019-03-19T08:17:50.268Z,90.70
2019-03-19T08:20:19.328Z,90.60
2019-03-19T08:22:48.135Z,90.60
2019-03-19T08:25:18.260Z,90.50
2019-03-19T08:27:46.923Z,90.50
2019-03-19T08:30:26.950Z,90.70
2019-03-19T08:32:55.519Z,90.00
2019-03-19T08:35:24.180Z,89.10
2019-03-19T08:37:52.820Z,88.50
2019-03-19T08:40:21.876Z,87.80
2019-03-19T08:42:50.504Z,87.00
2019-03-19T08:45:27.334Z,86.30
2019-03-19T08:47:55.953Z,86.10
2019-03-19T08:50:24.782Z,87.20
2019-03-19T08:52:55.484Z,87.80
2019-03-19T08:55:23.946Z,88.20
2019-03-19T08:57:52.528Z,88.30
2019-03-19T09:00:28.817Z,88.30
2019-03-19T09:02:57.461Z,83.50
2019-03-19T09:05:26.228Z,81.00
2019-03-19T09:07:54.881Z,77.90
2019-03-19T09:10:23.457Z,75.30
2019-03-19T09:12:52.209Z,73.20
2019-03-19T09:15:23.851Z,73.20
2019-03-19T09:17:52.837Z,74.00
2019-03-19T09:20:21.555Z,75.10
2019-03-19T09:22:50.241Z,74.90
2019-03-19T09:25:19.037Z,79.80
2019-03-19T09:27:47.719Z,79.80
2019-03-19T09:30:23.529Z,80.10
2019-03-19T09:32:52.175Z,79.70
2019-03-19T09:35:20.883Z,80.30
2019-03-19T09:37:58.148Z,81.80
2019-03-19T09:40:20.616Z,81.60
2019-03-19T09:42:49.309Z,84.10
2019-03-19T09:45:18.507Z,85.60
2019-03-19T09:47:47.666Z,86.50
2019-03-19T09:50:20.611Z,85.30
2019-03-19T09:52:49.374Z,85.00
2019-03-19T09:55:18.063Z,84.30
2019-03-19T09:57:46.641Z,83.60
2019-03-19T10:00:17.294Z,83.20
2019-03-19T10:02:46.024Z,83.20
2019-03-19T10:05:14.791Z,82.90
2019-03-19T10:07:43.452Z,83.20
2019-03-19T10:10:18.257Z,81.30
2019-03-19T10:12:47.024Z,78.10
2019-03-19T10:15:18.987Z,76.40
2019-03-19T10:17:47.649Z,73.70
2019-03-19T10:20:21.084Z,70.70
2019-03-19T10:22:49.811Z,71.00
2019-03-19T10:25:18.616Z,70.40
2019-03-19T10:27:47.340Z,70.30
2019-03-19T10:30:23.525Z,67.60
2019-03-19T10:32:52.293Z,63.10
2019-03-19T10:35:21.021Z,59.00
2019-03-19T10:37:49.662Z,56.40
2019-03-19T10:40:19.678Z,58.50
2019-03-19T10:42:48.381Z,60.40
2019-03-19T10:45:24.961Z,63.00
2019-03-19T10:47:53.686Z,63.60
2019-03-19T10:50:23.736Z,65.30
2019-03-19T10:52:52.399Z,66.00
2019-03-19T10:55:21.151Z,65.30
2019-03-19T10:57:49.821Z,66.30
2019-03-19T11:00:20.991Z,66.50
2019-03-19T11:02:49.909Z,65.60
2019-03-19T11:05:19.460Z,64.80
2019-03-19T11:07:48.215Z,62.60
2019-03-19T11:10:18.117Z,60.80
2019-03-19T11:12:46.989Z,60.40
2019-03-19T11:15:19.756Z,59.70
2019-03-19T11:17:48.409Z,59.40
2019-03-19T11:20:21.093Z,61.40
2019-03-19T11:22:49.878Z,64.30
2019-03-19T11:25:20.941Z,65.90
2019-03-19T11:27:49.713Z,65.70
2019-03-19T11:30:21.029Z,68.10
2019-03-19T11:32:49.821Z,69.70
2019-03-19T11:35:18.663Z,69.90
2019-03-19T11:37:47.359Z,70.20
2019-03-19T11:40:21.252Z,70.90
2019-03-19T11:42:50.720Z,71.40
2019-03-19T11:45:24.116Z,71.50
2019-03-19T11:47:52.879Z,73.00
2019-03-19T11:50:23.950Z,72.90
2019-03-19T11:52:52.939Z,74.00
2019-03-19T11:55:21.871Z,75.00
2019-03-19T11:57:50.785Z,74.30
2019-03-19T12:00:34.462Z,72.60
2019-03-19T12:03:13.787Z,72.70
2019-03-19T12:05:34.227Z,72.20
2019-03-19T12:08:02.918Z,70.90
2019-03-19T12:10:31.664Z,69.30
2019-03-19T12:13:00.276Z,68.60
2019-03-19T12:15:28.998Z,68.10
2019-03-19T12:17:57.694Z,69.10
2019-03-19T12:20:26.431Z,70.40
2019-03-19T12:22:55.040Z,72.00
2019-03-19T12:25:23.748Z,71.90
2019-03-19T12:27:52.329Z,72.80
2019-03-19T12:30:26.248Z,73.20
2019-03-19T12:32:54.862Z,73.90
2019-03-19T12:35:23.441Z,72.40
2019-03-19T12:37:52.124Z,72.90
2019-03-19T12:40:35.920Z,73.70
2019-03-19T12:42:54.830Z,74.50
2019-03-19T12:45:24.978Z,74.50
2019-03-19T12:47:53.564Z,75.00
2019-03-19T12:50:26.395Z,75.20
2019-03-19T12:52:54.973Z,75.90
2019-03-19T12:55:23.740Z,76.90
2019-03-19T12:57:52.455Z,76.90
2019-03-19T13:00:33.993Z,76.90
2019-03-19T13:02:58.438Z,76.00
2019-03-19T13:05:27.260Z,76.30
2019-03-19T13:07:55.878Z,76.60
2019-03-19T13:10:25.239Z,77.10
2019-03-19T13:12:54.021Z,77.80
2019-03-19T13:15:22.905Z,77.90
2019-03-19T13:17:51.539Z,77.70
2019-03-19T13:20:21.503Z,77.40
2019-03-19T13:22:50.221Z,77.00
2019-03-19T13:25:22.931Z,76.80
2019-03-19T13:27:51.616Z,76.40
2019-03-19T13:30:28.569Z,77.30
2019-03-19T13:32:59.227Z,78.50
2019-03-19T13:35:27.932Z,78.80
2019-03-19T13:37:56.542Z,79.70
2019-03-19T13:40:25.244Z,80.40
2019-03-19T13:42:53.876Z,81.00
2019-03-19T13:45:23.977Z,81.60
2019-03-19T13:47:52.626Z,81.20
2019-03-19T13:50:22.222Z,81.30
2019-03-19T13:52:50.993Z,81.60
2019-03-19T13:55:20.965Z,82.40
2019-03-19T13:57:49.693Z,80.20
2019-03-19T14:00:19.516Z,80.10
2019-03-19T14:02:48.854Z,79.40
2019-03-19T14:05:20.770Z,79.40
2019-03-19T14:07:49.427Z,80.30
2019-03-19T14:10:24.546Z,80.80
2019-03-19T14:12:53.194Z,80.10
2019-03-19T14:15:26.004Z,80.40
2019-03-19T14:17:54.593Z,81.00
2019-03-19T14:20:23.349Z,81.10
2019-03-19T14:22:52.090Z,80.20
2019-03-19T14:25:20.676Z,79.90
2019-03-19T14:27:49.342Z,80.70
2019-03-19T14:30:26.244Z,80.60
2019-03-19T14:32:54.824Z,79.90
2019-03-19T14:35:23.612Z,80.10
2019-03-19T14:37:52.194Z,80.10
2019-03-19T14:40:24.942Z,80.20
2019-03-19T14:42:53.656Z,79.40
2019-03-19T14:45:23.967Z,79.20
2019-03-19T14:47:52.934Z,79.30
2019-03-19T14:50:23.104Z,79.50
2019-03-19T14:52:51.812Z,79.30
2019-03-19T14:55:20.705Z,78.80
2019-03-19T14:57:50.873Z,78.80
2019-03-19T15:00:21.060Z,78.80
2019-03-19T15:02:49.832Z,79.90
2019-03-19T15:05:18.555Z,79.20
2019-03-19T15:07:47.281Z,79.40
2019-03-19T15:10:22.558Z,79.80
2019-03-19T15:12:51.268Z,79.70
2019-03-19T15:15:21.355Z,80.10
2019-03-19T15:17:50.157Z,80.70
2019-03-19T15:20:20.996Z,80.70
2019-03-19T15:22:49.718Z,80.60
2019-03-19T15:25:18.409Z,80.70
2019-03-19T15:27:47.086Z,80.80
2019-03-19T15:30:22.463Z,81.30
2019-03-19T15:32:51.186Z,81.60
2019-03-19T15:35:22.874Z,82.10
2019-03-19T15:37:51.729Z,82.30
2019-03-19T15:40:24.103Z,82.50
2019-03-19T15:42:52.932Z,83.10
2019-03-19T15:45:26.618Z,83.60
2019-03-19T15:47:55.420Z,84.30
2019-03-19T15:50:24.808Z,84.40
2019-03-19T15:52:57.333Z,84.60
2019-03-19T15:55:35.482Z,85.00
2019-03-19T15:58:09.567Z,85.50
2019-03-19T16:00:38.326Z,86.20
2019-03-19T16:03:07.222Z,86.20
2019-03-19T16:05:36.058Z,85.70
2019-03-19T16:08:04.742Z,85.30
2019-03-19T16:10:33.511Z,85.40
2019-03-19T16:13:02.447Z,85.50
2019-03-19T16:15:31.158Z,85.80
2019-03-19T16:17:59.947Z,86.10
2019-03-19T16:20:28.619Z,86.20
2019-03-19T16:22:57.325Z,84.70
2019-03-19T16:25:25.945Z,84.40
2019-03-19T16:27:54.646Z,84.00
2019-03-19T16:30:23.840Z,84.20
2019-03-19T16:32:52.540Z,84.50
2019-03-19T16:35:29.452Z,84.60
2019-03-19T16:38:04.209Z,84.60
2019-03-19T16:40:32.957Z,84.70
2019-03-19T16:43:01.721Z,85.60
2019-03-19T16:45:30.891Z,86.00
2019-03-19T16:47:59.543Z,86.10
2019-03-19T16:50:28.120Z,86.60
2019-03-19T16:52:59.947Z,87.10
2019-03-19T16:55:30.827Z,87.60
2019-03-19T16:57:59.509Z,88.00
2019-03-19T17:00:29.028Z,88.30
2019-03-19T17:02:57.730Z,88.60
2019-03-19T17:05:26.405Z,89.00
2019-03-19T17:07:54.990Z,89.60
2019-03-19T17:10:30.167Z,89.90
2019-03-19T17:12:59.170Z,90.10
2019-03-19T17:15:27.893Z,90.00
2019-03-19T17:17:56.593Z,90.00
2019-03-19T17:20:25.503Z,90.20
2019-03-19T17:22:54.237Z,90.30
2019-03-19T17:25:26.739Z,90.80
2019-03-19T17:27:56.922Z,90.60
2019-03-19T17:30:27.920Z,90.70
2019-03-19T17:33:00.039Z,90.90
2019-03-19T17:35:28.743Z,90.90
2019-03-19T17:37:57.481Z,91.00
2019-03-19T17:40:26.269Z,90.80
2019-03-19T17:42:54.921Z,91.00
2019-03-19T17:45:23.585Z,91.10
2019-03-19T17:47:53.311Z,91.00
2019-03-19T17:50:29.447Z,90.90
2019-03-19T17:52:58.467Z,90.90
2019-03-19T17:55:27.129Z,91.00
2019-03-19T17:57:55.874Z,91.10
2019-03-19T18:00:38.400Z,91.40
2019-03-19T18:03:07.226Z,91.40
2019-03-19T18:05:36.006Z,91.60
2019-03-19T18:08:04.934Z,91.90
2019-03-19T18:10:33.750Z,92.00
2019-03-19T18:13:02.672Z,92.20
2019-03-19T18:15:32.070Z,92.30
2019-03-19T18:18:00.711Z,92.60
2019-03-19T18:20:29.484Z,92.70
2019-03-19T18:22:58.326Z,92.90
2019-03-19T18:25:26.968Z,93.10
2019-03-19T18:27:55.667Z,93.30
2019-03-19T18:30:27.693Z,93.30
2019-03-19T18:32:56.335Z,93.30
2019-03-19T18:35:24.976Z,93.10
2019-03-19T18:37:53.593Z,93.40
2019-03-19T18:40:22.314Z,93.60
2019-03-19T18:42:51.160Z,93.80
2019-03-19T18:45:21.884Z,93.60
2019-03-19T18:47:50.520Z,93.90
2019-03-19T18:50:20.103Z,93.70
2019-03-19T18:52:48.834Z,93.50
2019-03-19T18:55:17.663Z,93.40
2019-03-19T18:57:46.534Z,93.20
2019-03-19T19:00:17.290Z,93.10
2019-03-19T19:02:51.152Z,93.10
2019-03-19T19:05:24.292Z,93.10
2019-03-19T19:07:53.019Z,93.00
2019-03-19T19:10:21.834Z,93.10
2019-03-19T19:12:50.674Z,93.30
2019-03-19T19:15:20.794Z,93.30
2019-03-19T19:17:49.526Z,93.40
2019-03-19T19:20:19.107Z,93.40
2019-03-19T19:22:47.954Z,93.50
2019-03-19T19:25:27.499Z,93.70
2019-03-19T19:27:59.262Z,94.00
2019-03-19T19:30:31.206Z,93.90
2019-03-19T19:33:01.847Z,93.80
2019-03-19T19:35:30.299Z,93.80
2019-03-19T19:37:59.085Z,94.00
2019-03-19T19:40:27.814Z,94.10
2019-03-19T19:42:56.568Z,94.30
2019-03-19T19:45:25.257Z,94.20
2019-03-19T19:47:55.808Z,94.00
2019-03-19T19:50:24.523Z,94.00
2019-03-19T19:52:53.350Z,94.00
2019-03-19T19:55:23.109Z,94.00
2019-03-19T19:57:51.870Z,94.00
2019-03-19T20:00:21.690Z,94.00
2019-03-19T20:02:50.486Z,94.10
2019-03-19T20:05:19.239Z,94.20
2019-03-19T20:07:48.032Z,94.10
2019-03-19T20:10:22.675Z,94.20
2019-03-19T20:12:51.569Z,94.30
2019-03-19T20:15:20.289Z,94.30
2019-03-19T20:17:49.082Z,94.20
2019-03-19T20:20:57.128Z,94.30
2019-03-19T20:23:25.948Z,94.30
2019-03-19T20:25:54.761Z,94.20
2019-03-19T20:28:23.505Z,94.30
2019-03-19T20:30:52.359Z,94.40
2019-03-19T20:33:25.065Z,94.20
2019-03-19T20:35:51.535Z,94.30
2019-03-19T20:38:20.379Z,94.50
2019-03-19T20:40:52.060Z,94.50
2019-03-19T20:43:20.851Z,94.50
2019-03-19T20:45:49.374Z,94.60
2019-03-19T20:48:18.165Z,94.70
2019-03-19T20:50:46.976Z,94.70
2019-03-19T20:53:15.726Z,94.70
2019-03-19T20:55:44.510Z,94.70
2019-03-19T20:58:13.232Z,94.80
2019-03-19T21:00:41.843Z,94.70
2019-03-19T21:03:10.673Z,94.70
2019-03-19T21:05:39.395Z,94.80
2019-03-19T21:08:08.183Z,94.80
2019-03-19T21:10:36.930Z,94.50
2019-03-19T21:13:05.750Z,94.50
2019-03-19T21:15:34.777Z,94.50
2019-03-19T21:18:03.347Z,94.60
2019-03-19T21:20:32.064Z,94.70
2019-03-19T21:23:00.731Z,94.70
2019-03-19T21:25:29.494Z,94.90
2019-03-19T21:27:58.354Z,94.70
2019-03-19T21:30:27.164Z,94.90
2019-03-19T21:32:55.953Z,95.20
2019-03-19T21:35:25.749Z,95.40
2019-03-19T21:37:54.572Z,95.60
2019-03-19T21:40:23.249Z,95.70
2019-03-19T21:42:52.021Z,95.90
2019-03-19T21:45:21.804Z,95.90
2019-03-19T21:47:50.526Z,96.10
2019-03-19T21:50:21.458Z,96.10
2019-03-19T21:52:50.229Z,96.10
2019-03-19T21:55:19.114Z,96.30
2019-03-19T21:57:47.946Z,96.40
2019-03-19T22:00:24.232Z,96.20
2019-03-19T22:02:53.121Z,96.10
2019-03-19T22:05:21.785Z,96.10
2019-03-19T22:07:50.512Z,96.20
2019-03-19T22:10:23.032Z,96.10
2019-03-19T22:12:51.848Z,96.20
2019-03-19T22:15:24.523Z,96.40
2019-03-19T22:17:53.291Z,96.50
2019-03-19T22:20:22.064Z,96.50
2019-03-19T22:22:50.803Z,96.60
2019-03-19T22:25:19.483Z,96.50
2019-03-19T22:27:48.328Z,96.50
2019-03-19T22:30:21.015Z,96.60
2019-03-19T22:32:49.914Z,96.60
2019-03-19T22:35:18.753Z,96.60
2019-03-19T22:37:47.601Z,96.80
2019-03-19T22:40:18.083Z,96.80
2019-03-19T22:42:46.926Z,96.80
2019-03-19T22:45:19.489Z,96.90
2019-03-19T22:47:48.283Z,97.10
2019-03-19T22:50:18.118Z,97.40
2019-03-19T22:52:47.251Z,97.40
2019-03-19T22:55:16.196Z,97.40
2019-03-19T22:57:45.067Z,97.40
2019-03-19T23:00:23.678Z,97.30
2019-03-19T23:02:52.717Z,97.30
2019-03-19T23:05:21.285Z,97.50
2019-03-19T23:07:50.000Z,97.60
2019-03-19T23:10:18.601Z,97.70
2019-03-19T23:12:47.515Z,97.70
2019-03-19T23:15:16.078Z,97.90
2019-03-19T23:17:44.682Z,97.90
2019-03-19T23:20:14.606Z,97.60
2019-03-19T23:22:43.224Z,97.60
2019-03-19T23:25:12.344Z,97.60
2019-03-19T23:27:41.087Z,97.70
2019-03-19T23:30:17.726Z,97.60
2019-03-19T23:32:46.685Z,97.70
2019-03-19T23:35:15.421Z,97.80
2019-03-19T23:37:44.147Z,98.00
2019-03-19T23:40:14.462Z,98.00
2019-03-19T23:42:43.200Z,98.00
2019-03-19T23:45:13.874Z,98.30
2019-03-19T23:47:42.529Z,98.00
2019-03-19T23:50:13.270Z,98.00
2019-03-19T23:52:41.999Z,98.00
2019-03-19T23:55:12.014Z,97.90
2019-03-19T23:57:40.787Z,98.00
